sensor_id;sensor_type;location;lat;lon;timestamp;pressure;altitude;pressure_sealevel;temperature;humidity
7768;BME280;3928;42.626;23.382;2023-01-29T00:01:13;94188.91;;;3.61;80.10
7768;BME280;3928;42.626;23.382;2023-01-29T00:03:40;94193.22;;;3.71;79.35
7768;BME280;3928;42.626;23.382;2023-01-29T00:06:08;94197.47;;;3.75;79.24
7768;BME280;3928;42.626;23.382;2023-01-29T00:08:37;94195.72;;;3.68;79.36
7768;BME280;3928;42.626;23.382;2023-01-29T00:11:05;94187.19;;;3.60;79.51
7768;BME280;3928;42.626;23.382;2023-01-29T00:13:33;94196.44;;;3.55;79.61
7768;BME280;3928;42.626;23.382;2023-01-29T00:16:00;94220.13;;;3.55;79.90
7768;BME280;3928;42.626;23.382;2023-01-29T00:18:29;94192.91;;;3.34;79.81
7768;BME280;3928;42.626;23.382;2023-01-29T00:20:57;94223.47;;;3.46;79.83
7768;BME280;3928;42.626;23.382;2023-01-29T00:23:24;94224.81;;;3.12;80.67
7768;BME280;3928;42.626;23.382;2023-01-29T00:25:51;94226.44;;;3.06;81.57
7768;BME280;3928;42.626;23.382;2023-01-29T00:28:17;94230.53;;;2.94;81.59
7768;BME280;3928;42.626;23.382;2023-01-29T00:30:44;94218.44;;;2.72;82.19
7768;BME280;3928;42.626;23.382;2023-01-29T00:33:11;94239.66;;;2.79;83.01
7768;BME280;3928;42.626;23.382;2023-01-29T00:35:40;94240.22;;;2.55;83.80
7768;BME280;3928;42.626;23.382;2023-01-29T00:38:07;94238.81;;;2.78;82.84
7768;BME280;3928;42.626;23.382;2023-01-29T00:40:36;94237.16;;;2.83;82.85
7768;BME280;3928;42.626;23.382;2023-01-29T00:43:17;94241.47;;;2.90;82.49
7768;BME280;3928;42.626;23.382;2023-01-29T00:46:01;94237.28;;;2.92;83.00
7768;BME280;3928;42.626;23.382;2023-01-29T00:48:28;94217.97;;;3.04;82.46
7768;BME280;3928;42.626;23.382;2023-01-29T00:50:56;94229.94;;;3.17;81.38
7768;BME280;3928;42.626;23.382;2023-01-29T00:53:23;94205.16;;;2.91;81.81
7768;BME280;3928;42.626;23.382;2023-01-29T00:55:49;94235.00;;;3.17;81.66
7768;BME280;3928;42.626;23.382;2023-01-29T00:58:16;94237.47;;;3.11;82.67
7768;BME280;3928;42.626;23.382;2023-01-29T01:00:46;94228.94;;;3.03;82.14
7768;BME280;3928;42.626;23.382;2023-01-29T01:03:14;94226.44;;;3.07;82.56
7768;BME280;3928;42.626;23.382;2023-01-29T01:05:40;94216.25;;;3.00;82.15
7768;BME280;3928;42.626;23.382;2023-01-29T01:08:09;94230.72;;;3.10;82.12
7768;BME280;3928;42.626;23.382;2023-01-29T01:10:58;94208.66;;;3.03;82.43
7768;BME280;3928;42.626;23.382;2023-01-29T01:13:24;94227.25;;;3.02;82.78
7768;BME280;3928;42.626;23.382;2023-01-29T01:15:52;94235.72;;;3.07;83.04
7768;BME280;3928;42.626;23.382;2023-01-29T01:18:18;94231.44;;;2.98;83.31
7768;BME280;3928;42.626;23.382;2023-01-29T01:20:47;94205.06;;;2.82;83.67
7768;BME280;3928;42.626;23.382;2023-01-29T01:23:17;94221.91;;;2.77;84.55
7768;BME280;3928;42.626;23.382;2023-01-29T01:25:44;94233.00;;;2.87;84.34
7768;BME280;3928;42.626;23.382;2023-01-29T01:28:11;94210.81;;;2.68;85.74
7768;BME280;3928;42.626;23.382;2023-01-29T01:30:38;94226.13;;;2.78;85.43
7768;BME280;3928;42.626;23.382;2023-01-29T01:33:05;94228.63;;;2.74;85.32
7768;BME280;3928;42.626;23.382;2023-01-29T01:35:32;94139.03;;;1.97;86.10
7768;BME280;3928;42.626;23.382;2023-01-29T01:37:59;94232.72;;;2.62;86.67
7768;BME280;3928;42.626;23.382;2023-01-29T01:40:27;94235.16;;;2.55;86.59
7768;BME280;3928;42.626;23.382;2023-01-29T01:42:55;94228.53;;;2.66;87.01
7768;BME280;3928;42.626;23.382;2023-01-29T01:45:25;94222.59;;;2.64;87.01
7768;BME280;3928;42.626;23.382;2023-01-29T01:47:55;94232.84;;;2.75;86.88
7768;BME280;3928;42.626;23.382;2023-01-29T01:50:26;94233.72;;;2.75;86.29
7768;BME280;3928;42.626;23.382;2023-01-29T01:52:58;94239.63;;;2.76;86.03
7768;BME280;3928;42.626;23.382;2023-01-29T01:55:29;94235.38;;;2.73;86.59
7768;BME280;3928;42.626;23.382;2023-01-29T01:58:02;94228.44;;;2.58;86.27
7768;BME280;3928;42.626;23.382;2023-01-29T02:00:29;94242.00;;;2.62;86.80
7768;BME280;3928;42.626;23.382;2023-01-29T02:02:56;94243.69;;;2.63;87.33
7768;BME280;3928;42.626;23.382;2023-01-29T02:05:41;94244.69;;;2.74;87.08
7768;BME280;3928;42.626;23.382;2023-01-29T02:08:30;94238.81;;;2.80;86.17
7768;BME280;3928;42.626;23.382;2023-01-29T02:11:17;94244.94;;;2.97;85.33
7768;BME280;3928;42.626;23.382;2023-01-29T02:13:43;94241.44;;;2.87;85.85
7768;BME280;3928;42.626;23.382;2023-01-29T02:16:10;94253.13;;;2.75;86.62
7768;BME280;3928;42.626;23.382;2023-01-29T02:18:37;94250.59;;;2.73;87.23
7768;BME280;3928;42.626;23.382;2023-01-29T02:21:19;94248.97;;;2.81;87.32
7768;BME280;3928;42.626;23.382;2023-01-29T02:27:08;94253.97;;;2.75;88.01
7768;BME280;3928;42.626;23.382;2023-01-29T02:29:46;94233.50;;;2.60;88.23
7768;BME280;3928;42.626;23.382;2023-01-29T02:32:23;94242.84;;;2.61;88.58
7768;BME280;3928;42.626;23.382;2023-01-29T02:35:07;94261.44;;;2.63;88.88
7768;BME280;3928;42.626;23.382;2023-01-29T02:38:06;94262.03;;;2.47;90.00
7768;BME280;3928;42.626;23.382;2023-01-29T02:40:41;94266.28;;;2.48;90.20
7768;BME280;3928;42.626;23.382;2023-01-29T02:43:18;94252.59;;;2.33;90.40
7768;BME280;3928;42.626;23.382;2023-01-29T02:45:54;94267.09;;;2.44;91.04
7768;BME280;3928;42.626;23.382;2023-01-29T02:48:29;94272.25;;;2.50;90.95
7768;BME280;3928;42.626;23.382;2023-01-29T02:51:03;94257.91;;;2.52;90.44
7768;BME280;3928;42.626;23.382;2023-01-29T02:53:36;94271.31;;;2.45;90.71
7768;BME280;3928;42.626;23.382;2023-01-29T02:56:09;94253.25;;;2.20;92.00
7768;BME280;3928;42.626;23.382;2023-01-29T02:58:40;94234.66;;;2.18;91.83
7768;BME280;3928;42.626;23.382;2023-01-29T03:01:14;94266.94;;;2.34;91.62
7768;BME280;3928;42.626;23.382;2023-01-29T03:03:46;94262.81;;;2.40;91.78
7768;BME280;3928;42.626;23.382;2023-01-29T03:06:17;94269.56;;;2.39;91.97
7768;BME280;3928;42.626;23.382;2023-01-29T03:08:51;94265.13;;;2.24;92.05
7768;BME280;3928;42.626;23.382;2023-01-29T03:11:20;94272.16;;;2.44;91.98
7768;BME280;3928;42.626;23.382;2023-01-29T03:13:50;94278.00;;;2.38;91.61
7768;BME280;3928;42.626;23.382;2023-01-29T03:16:23;94255.91;;;2.28;92.67
7768;BME280;3928;42.626;23.382;2023-01-29T03:18:55;94272.00;;;2.34;92.03
7768;BME280;3928;42.626;23.382;2023-01-29T03:21:28;94272.97;;;2.43;91.91
7768;BME280;3928;42.626;23.382;2023-01-29T03:24:17;94272.16;;;2.44;91.49
7768;BME280;3928;42.626;23.382;2023-01-29T03:27:07;94277.47;;;2.62;91.28
7768;BME280;3928;42.626;23.382;2023-01-29T03:29:53;94283.00;;;2.37;90.30
7768;BME280;3928;42.626;23.382;2023-01-29T03:32:41;94282.22;;;2.38;90.62
7768;BME280;3928;42.626;23.382;2023-01-29T03:35:09;94276.56;;;2.60;89.83
7768;BME280;3928;42.626;23.382;2023-01-29T03:37:40;94278.16;;;2.50;88.87
7768;BME280;3928;42.626;23.382;2023-01-29T03:40:11;94264.56;;;2.47;88.28
7768;BME280;3928;42.626;23.382;2023-01-29T03:42:47;94281.69;;;2.61;88.04
7768;BME280;3928;42.626;23.382;2023-01-29T03:45:18;94282.59;;;2.68;86.75
7768;BME280;3928;42.626;23.382;2023-01-29T03:47:52;94284.38;;;2.75;86.79
7768;BME280;3928;42.626;23.382;2023-01-29T03:50:32;94282.59;;;2.68;86.57
7768;BME280;3928;42.626;23.382;2023-01-29T03:53:06;94285.97;;;2.67;86.57
7768;BME280;3928;42.626;23.382;2023-01-29T03:55:37;94286.84;;;2.72;86.76
7768;BME280;3928;42.626;23.382;2023-01-29T03:58:15;94287.69;;;2.70;87.16
7768;BME280;3928;42.626;23.382;2023-01-29T04:00:51;94286.00;;;2.70;87.55
7768;BME280;3928;42.626;23.382;2023-01-29T04:03:24;94273.28;;;2.66;87.09
7768;BME280;3928;42.626;23.382;2023-01-29T04:05:58;94286.97;;;2.80;87.33
7768;BME280;3928;42.626;23.382;2023-01-29T04:08:31;94288.63;;;2.78;87.93
7768;BME280;3928;42.626;23.382;2023-01-29T04:11:05;94280.25;;;2.83;87.61
7768;BME280;3928;42.626;23.382;2023-01-29T04:13:35;94279.50;;;2.90;87.55
7768;BME280;3928;42.626;23.382;2023-01-29T04:16:05;94283.81;;;2.96;87.51
7768;BME280;3928;42.626;23.382;2023-01-29T04:18:35;94286.97;;;2.80;87.51
7768;BME280;3928;42.626;23.382;2023-01-29T04:21:02;94295.41;;;2.80;87.91
7768;BME280;3928;42.626;23.382;2023-01-29T04:23:31;94282.03;;;2.92;88.16
7768;BME280;3928;42.626;23.382;2023-01-29T04:26:09;94289.00;;;3.08;87.49
7768;BME280;3928;42.626;23.382;2023-01-29T04:28:52;94298.03;;;2.85;87.83
7768;BME280;3928;42.626;23.382;2023-01-29T04:31:22;94226.66;;;2.51;87.43
7768;BME280;3928;42.626;23.382;2023-01-29T04:33:59;94105.94;;;1.81;87.71
7768;BME280;3928;42.626;23.382;2023-01-29T04:36:36;94302.28;;;2.87;87.63
7768;BME280;3928;42.626;23.382;2023-01-29T04:39:09;94302.19;;;2.83;87.33
7768;BME280;3928;42.626;23.382;2023-01-29T04:41:45;94287.75;;;2.74;88.08
7768;BME280;3928;42.626;23.382;2023-01-29T04:44:19;94306.50;;;2.88;87.61
7768;BME280;3928;42.626;23.382;2023-01-29T04:46:51;94302.84;;;2.65;87.53
7768;BME280;3928;42.626;23.382;2023-01-29T04:49:31;94292.84;;;2.76;87.56
7768;BME280;3928;42.626;23.382;2023-01-29T04:52:05;94306.25;;;2.70;88.06
7768;BME280;3928;42.626;23.382;2023-01-29T04:54:43;94302.16;;;2.80;87.44
7768;BME280;3928;42.626;23.382;2023-01-29T04:57:18;94307.47;;;2.97;86.93
7768;BME280;3928;42.626;23.382;2023-01-29T04:59:53;94304.03;;;2.94;87.11
7768;BME280;3928;42.626;23.382;2023-01-29T05:02:23;94312.44;;;2.90;86.40
7768;BME280;3928;42.626;23.382;2023-01-29T05:04:53;94307.50;;;3.00;85.70
7768;BME280;3928;42.626;23.382;2023-01-29T05:07:21;94306.69;;;3.04;86.11
7768;BME280;3928;42.626;23.382;2023-01-29T05:09:50;94301.56;;;2.98;85.55
7768;BME280;3928;42.626;23.382;2023-01-29T05:12:17;94306.50;;;2.88;85.74
7768;BME280;3928;42.626;23.382;2023-01-29T05:14:45;94309.88;;;2.87;85.47
7768;BME280;3928;42.626;23.382;2023-01-29T05:17:15;94313.34;;;2.96;85.50
7768;BME280;3928;42.626;23.382;2023-01-29T05:19:44;94319.16;;;2.85;85.39
7768;BME280;3928;42.626;23.382;2023-01-29T05:22:15;94317.38;;;2.80;85.69
7768;BME280;3928;42.626;23.382;2023-01-29T05:24:43;94319.19;;;2.90;85.95
7768;BME280;3928;42.626;23.382;2023-01-29T05:27:16;94304.72;;;2.83;85.40
7768;BME280;3928;42.626;23.382;2023-01-29T05:30:02;94323.28;;;2.80;85.38
7768;BME280;3928;42.626;23.382;2023-01-29T05:32:29;94320.00;;;2.84;85.44
7768;BME280;3928;42.626;23.382;2023-01-29T05:34:55;94332.69;;;2.89;85.60
7768;BME280;3928;42.626;23.382;2023-01-29T05:37:23;94328.47;;;2.89;86.03
7768;BME280;3928;42.626;23.382;2023-01-29T05:39:50;94322.25;;;2.64;85.97
7768;BME280;3928;42.626;23.382;2023-01-29T05:42:17;94333.13;;;2.59;87.13
7768;BME280;3928;42.626;23.382;2023-01-29T05:44:44;94326.44;;;2.61;87.00
7768;BME280;3928;42.626;23.382;2023-01-29T05:47:10;94327.34;;;2.68;86.90
7768;BME280;3928;42.626;23.382;2023-01-29T05:49:37;94335.06;;;2.75;87.24
7768;BME280;3928;42.626;23.382;2023-01-29T05:52:04;94327.50;;;2.78;87.27
7768;BME280;3928;42.626;23.382;2023-01-29T05:54:32;94336.13;;;2.92;87.04
7768;BME280;3928;42.626;23.382;2023-01-29T05:56:59;94334.41;;;2.91;87.16
7768;BME280;3928;42.626;23.382;2023-01-29T05:59:26;94091.13;;;1.44;87.02
7768;BME280;3928;42.626;23.382;2023-01-29T06:01:55;94351.31;;;2.91;87.22
7768;BME280;3928;42.626;23.382;2023-01-29T06:04:22;94300.19;;;2.59;87.17
7768;BME280;3928;42.626;23.382;2023-01-29T06:06:49;94342.19;;;3.04;86.51
7768;BME280;3928;42.626;23.382;2023-01-29T06:09:16;94356.41;;;2.92;86.69
7768;BME280;3928;42.626;23.382;2023-01-29T06:11:44;94352.03;;;2.82;87.01
7768;BME280;3928;42.626;23.382;2023-01-29T06:14:11;94361.09;;;2.65;88.58
7768;BME280;3928;42.626;23.382;2023-01-29T06:16:37;94367.09;;;2.72;88.52
7768;BME280;3928;42.626;23.382;2023-01-29T06:19:04;94369.75;;;2.81;88.35
7768;BME280;3928;42.626;23.382;2023-01-29T06:21:32;94367.84;;;2.64;88.80
7768;BME280;3928;42.626;23.382;2023-01-29T06:23:58;94367.72;;;2.55;89.41
7768;BME280;3928;42.626;23.382;2023-01-29T06:26:25;94368.13;;;2.84;88.56
7768;BME280;3928;42.626;23.382;2023-01-29T06:28:53;94383.50;;;2.97;88.59
7768;BME280;3928;42.626;23.382;2023-01-29T06:31:20;94391.78;;;2.85;88.13
7768;BME280;3928;42.626;23.382;2023-01-29T06:33:47;94386.03;;;2.97;88.22
7768;BME280;3928;42.626;23.382;2023-01-29T06:36:14;94389.38;;;2.96;88.65
7768;BME280;3928;42.626;23.382;2023-01-29T06:38:41;94386.69;;;2.83;88.60
7768;BME280;3928;42.626;23.382;2023-01-29T06:41:08;94386.59;;;2.76;88.80
7768;BME280;3928;42.626;23.382;2023-01-29T06:43:35;94400.28;;;2.88;88.32
7768;BME280;3928;42.626;23.382;2023-01-29T06:46:06;94392.72;;;2.93;88.76
7768;BME280;3928;42.626;23.382;2023-01-29T06:48:33;94401.25;;;2.97;88.45
7768;BME280;3928;42.626;23.382;2023-01-29T06:51:01;94397.22;;;3.12;87.59
7768;BME280;3928;42.626;23.382;2023-01-29T06:53:28;94401.41;;;3.09;87.52
7768;BME280;3928;42.626;23.382;2023-01-29T06:55:55;94409.88;;;3.11;87.85
7768;BME280;3928;42.626;23.382;2023-01-29T06:58:22;94411.56;;;3.09;87.86
7768;BME280;3928;42.626;23.382;2023-01-29T07:00:49;94403.16;;;3.13;87.88
7768;BME280;3928;42.626;23.382;2023-01-29T07:03:17;94403.88;;;3.04;88.12
7768;BME280;3928;42.626;23.382;2023-01-29T07:05:49;94408.28;;;3.19;88.04
7768;BME280;3928;42.626;23.382;2023-01-29T07:08:16;94378.47;;;3.01;87.55
7768;BME280;3928;42.626;23.382;2023-01-29T07:10:43;94402.34;;;3.18;86.94
7768;BME280;3928;42.626;23.382;2023-01-29T07:13:10;94399.78;;;3.14;86.95
7768;BME280;3928;42.626;23.382;2023-01-29T07:15:37;94417.78;;;3.32;87.47
7768;BME280;3928;42.626;23.382;2023-01-29T07:18:04;94398.13;;;3.19;87.78
7768;BME280;3928;42.626;23.382;2023-01-29T07:20:38;94393.13;;;3.22;86.87
7768;BME280;3928;42.626;23.382;2023-01-29T07:23:06;94413.28;;;3.13;86.98
7768;BME280;3928;42.626;23.382;2023-01-29T07:25:34;94423.63;;;3.30;87.87
7768;BME280;3928;42.626;23.382;2023-01-29T07:28:02;94425.03;;;3.08;88.25
7768;BME280;3928;42.626;23.382;2023-01-29T07:30:29;94400.47;;;3.04;88.29
7768;BME280;3928;42.626;23.382;2023-01-29T07:33:00;94415.09;;;3.20;88.09
7768;BME280;3928;42.626;23.382;2023-01-29T07:35:27;94426.31;;;3.40;87.06
7768;BME280;3928;42.626;23.382;2023-01-29T07:37:55;94435.63;;;3.41;89.24
7768;BME280;3928;42.626;23.382;2023-01-29T07:40:22;94425.28;;;3.26;87.02
7768;BME280;3928;42.626;23.382;2023-01-29T07:42:49;94433.03;;;3.35;86.29
7768;BME280;3928;42.626;23.382;2023-01-29T07:45:16;94415.88;;;3.17;86.63
7768;BME280;3928;42.626;23.382;2023-01-29T07:47:43;94428.84;;;3.39;86.16
7768;BME280;3928;42.626;23.382;2023-01-29T07:50:10;94428.84;;;3.40;86.77
7768;BME280;3928;42.626;23.382;2023-01-29T07:52:37;94439.91;;;3.44;87.34
7768;BME280;3928;42.626;23.382;2023-01-29T07:55:06;94434.78;;;3.41;87.10
7768;BME280;3928;42.626;23.382;2023-01-29T07:57:33;94438.31;;;3.53;87.60
7768;BME280;3928;42.626;23.382;2023-01-29T07:59:59;94429.56;;;3.30;87.54
7768;BME280;3928;42.626;23.382;2023-01-29T08:02:26;94443.47;;;3.60;87.91
7768;BME280;3928;42.626;23.382;2023-01-29T08:04:53;94441.19;;;3.81;86.67
7768;BME280;3928;42.626;23.382;2023-01-29T08:07:20;94433.59;;;3.86;86.02
7768;BME280;3928;42.626;23.382;2023-01-29T08:09:47;94450.66;;;3.99;84.76
7768;BME280;3928;42.626;23.382;2023-01-29T08:12:15;94431.63;;;3.59;85.75
7768;BME280;3928;42.626;23.382;2023-01-29T08:14:42;94446.00;;;3.60;85.74
7768;BME280;3928;42.626;23.382;2023-01-29T08:17:10;94452.06;;;3.71;84.89
7768;BME280;3928;42.626;23.382;2023-01-29T08:19:37;94457.59;;;3.39;86.24
7768;BME280;3928;42.626;23.382;2023-01-29T08:22:04;94456.91;;;3.52;86.22
7768;BME280;3928;42.626;23.382;2023-01-29T08:24:31;94446.91;;;3.65;85.57
7768;BME280;3928;42.626;23.382;2023-01-29T08:26:58;94451.28;;;3.78;85.42
7768;BME280;3928;42.626;23.382;2023-01-29T08:29:26;94458.03;;;3.76;85.22
7768;BME280;3928;42.626;23.382;2023-01-29T08:31:53;94462.38;;;3.86;84.59
7768;BME280;3928;42.626;23.382;2023-01-29T08:34:20;94464.91;;;3.85;84.71
7768;BME280;3928;42.626;23.382;2023-01-29T08:36:47;94460.94;;;4.11;95.11
7768;BME280;3928;42.626;23.382;2023-01-29T08:39:14;94459.34;;;4.19;85.51
7768;BME280;3928;42.626;23.382;2023-01-29T08:41:40;94464.19;;;3.98;83.23
7768;BME280;3928;42.626;23.382;2023-01-29T08:44:07;94467.47;;;3.86;83.28
7768;BME280;3928;42.626;23.382;2023-01-29T08:46:36;94472.53;;;3.86;83.95
7768;BME280;3928;42.626;23.382;2023-01-29T08:49:05;94435.03;;;3.64;83.92
7768;BME280;3928;42.626;23.382;2023-01-29T08:51:32;94476.66;;;3.76;83.86
7768;BME280;3928;42.626;23.382;2023-01-29T08:53:59;94474.09;;;3.76;82.82
7768;BME280;3928;42.626;23.382;2023-01-29T08:56:25;94483.28;;;3.67;82.85
7768;BME280;3928;42.626;23.382;2023-01-29T08:58:52;94489.13;;;3.58;83.78
7768;BME280;3928;42.626;23.382;2023-01-29T09:01:19;94480.69;;;3.61;83.02
7768;BME280;3928;42.626;23.382;2023-01-29T09:03:47;94492.81;;;3.85;83.03
7768;BME280;3928;42.626;23.382;2023-01-29T09:06:15;94463.78;;;3.61;81.83
7768;BME280;3928;42.626;23.382;2023-01-29T09:08:41;94490.09;;;3.68;81.76
7768;BME280;3928;42.626;23.382;2023-01-29T09:11:08;94501.16;;;3.73;82.40
7768;BME280;3928;42.626;23.382;2023-01-29T09:13:35;94475.53;;;3.55;82.37
7768;BME280;3928;42.626;23.382;2023-01-29T09:16:03;94496.22;;;3.87;82.86
7768;BME280;3928;42.626;23.382;2023-01-29T09:18:30;94494.66;;;3.98;81.97
7768;BME280;3928;42.626;23.382;2023-01-29T09:20:58;94479.56;;;4.10;81.89
7768;BME280;3928;42.626;23.382;2023-01-29T09:23:27;94480.44;;;4.14;81.19
7768;BME280;3928;42.626;23.382;2023-01-29T09:25:55;94454.03;;;3.96;80.45
7768;BME280;3928;42.626;23.382;2023-01-29T09:28:22;94494.69;;;4.01;80.43
7768;BME280;3928;42.626;23.382;2023-01-29T09:30:49;94487.03;;;3.96;80.90
7768;BME280;3928;42.626;23.382;2023-01-29T09:33:16;94486.88;;;3.81;81.06
7768;BME280;3928;42.626;23.382;2023-01-29T09:35:43;94480.00;;;3.74;81.18
7768;BME280;3928;42.626;23.382;2023-01-29T09:38:13;94474.31;;;3.92;81.69
7768;BME280;3928;42.626;23.382;2023-01-29T09:40:48;94487.97;;;4.03;80.91
7768;BME280;3928;42.626;23.382;2023-01-29T09:43:23;94483.53;;;3.87;80.43
7768;BME280;3928;42.626;23.382;2023-01-29T09:45:55;94479.31;;;3.87;80.85
7768;BME280;3928;42.626;23.382;2023-01-29T09:48:26;94466.50;;;3.78;81.20
7768;BME280;3928;42.626;23.382;2023-01-29T09:50:56;94477.63;;;3.89;80.62
7768;BME280;3928;42.626;23.382;2023-01-29T09:53:31;94478.34;;;3.76;81.17
7768;BME280;3928;42.626;23.382;2023-01-29T09:56:03;94474.97;;;3.77;81.12
7768;BME280;3928;42.626;23.382;2023-01-29T09:58:33;94468.00;;;3.61;82.79
7768;BME280;3928;42.626;23.382;2023-01-29T10:01:09;94468.84;;;3.60;81.72
7768;BME280;3928;42.626;23.382;2023-01-29T10:03:53;94467.13;;;3.56;81.22
7768;BME280;3928;42.626;23.382;2023-01-29T10:06:35;94470.41;;;3.51;82.39
7768;BME280;3928;42.626;23.382;2023-01-29T10:09:39;94458.13;;;3.82;82.05
7768;BME280;3928;42.626;23.382;2023-01-29T10:12:26;94462.47;;;3.92;81.00
7768;BME280;3928;42.626;23.382;2023-01-29T10:15:01;94449.56;;;3.74;80.73
7768;BME280;3928;42.626;23.382;2023-01-29T10:17:43;94462.41;;;3.89;87.10
7768;BME280;3928;42.626;23.382;2023-01-29T10:20:36;94428.06;;;4.23;94.42
7768;BME280;3928;42.626;23.382;2023-01-29T10:23:19;94455.34;;;4.44;85.27
7768;BME280;3928;42.626;23.382;2023-01-29T10:25:48;94450.38;;;4.59;81.55
7768;BME280;3928;42.626;23.382;2023-01-29T10:28:17;94446.13;;;4.52;80.50
7768;BME280;3928;42.626;23.382;2023-01-29T10:30:48;94446.03;;;4.45;79.64
7768;BME280;3928;42.626;23.382;2023-01-29T10:33:22;94448.44;;;4.28;78.83
7768;BME280;3928;42.626;23.382;2023-01-29T10:35:55;94450.88;;;4.19;79.21
7768;BME280;3928;42.626;23.382;2023-01-29T10:38:33;94438.16;;;4.17;81.81
7768;BME280;3928;42.626;23.382;2023-01-29T10:41:19;94426.97;;;3.97;79.65
7768;BME280;3928;42.626;23.382;2023-01-29T10:43:58;94447.88;;;3.74;81.16
7768;BME280;3928;42.626;23.382;2023-01-29T10:46:40;94441.22;;;3.84;82.40
7768;BME280;3928;42.626;23.382;2023-01-29T10:49:23;94439.38;;;3.71;82.00
7768;BME280;3928;42.626;23.382;2023-01-29T10:52:07;94440.16;;;3.67;82.43
7768;BME280;3928;42.626;23.382;2023-01-29T10:54:48;94430.78;;;3.58;82.63
7768;BME280;3928;42.626;23.382;2023-01-29T10:57:35;94426.72;;;3.75;82.56
7768;BME280;3928;42.626;23.382;2023-01-29T11:00:11;94430.94;;;3.75;82.38
7768;BME280;3928;42.626;23.382;2023-01-29T11:02:43;94428.41;;;3.75;81.91
7768;BME280;3928;42.626;23.382;2023-01-29T11:05:18;94428.09;;;3.47;83.16
7768;BME280;3928;42.626;23.382;2023-01-29T11:07:46;94420.66;;;3.63;82.92
7768;BME280;3928;42.626;23.382;2023-01-29T11:10:16;94434.16;;;3.59;83.31
7768;BME280;3928;42.626;23.382;2023-01-29T11:12:46;94430.81;;;3.63;83.23
7768;BME280;3928;42.626;23.382;2023-01-29T11:15:17;94395.97;;;3.46;83.49
7768;BME280;3928;42.626;23.382;2023-01-29T11:18:01;94399.63;;;3.73;83.20
7768;BME280;3928;42.626;23.382;2023-01-29T11:20:29;94403.00;;;3.73;82.54
7768;BME280;3928;42.626;23.382;2023-01-29T11:22:56;94430.94;;;3.75;82.40
7768;BME280;3928;42.626;23.382;2023-01-29T11:25:23;94402.09;;;3.67;82.28
7768;BME280;3928;42.626;23.382;2023-01-29T11:27:55;94402.19;;;3.76;82.94
7768;BME280;3928;42.626;23.382;2023-01-29T11:30:24;94407.94;;;3.58;82.61
7768;BME280;3928;42.626;23.382;2023-01-29T11:32:59;94415.44;;;3.50;83.62
7768;BME280;3928;42.626;23.382;2023-01-29T11:35:31;94390.94;;;3.52;84.66
7768;BME280;3928;42.626;23.382;2023-01-29T11:38:06;94390.34;;;3.78;82.86
7768;BME280;3928;42.626;23.382;2023-01-29T11:40:40;94394.94;;;4.13;82.41
7768;BME280;3928;42.626;23.382;2023-01-29T11:43:27;94385.50;;;3.99;80.87
7768;BME280;3928;42.626;23.382;2023-01-29T11:45:57;94385.63;;;4.11;81.35
7768;BME280;3928;42.626;23.382;2023-01-29T11:48:32;94377.97;;;4.07;80.43
7768;BME280;3928;42.626;23.382;2023-01-29T11:50:59;94382.34;;;4.23;80.02
7768;BME280;3928;42.626;23.382;2023-01-29T11:53:34;94379.06;;;4.38;79.82
7768;BME280;3928;42.626;23.382;2023-01-29T11:56:04;94382.50;;;4.43;79.65
7768;BME280;3928;42.626;23.382;2023-01-29T11:58:34;94369.03;;;4.50;79.37
7768;BME280;3928;42.626;23.382;2023-01-29T12:01:01;94385.94;;;4.50;78.64
7768;BME280;3928;42.626;23.382;2023-01-29T12:03:33;94377.53;;;4.61;78.63
7768;BME280;3928;42.626;23.382;2023-01-29T12:06:03;94375.00;;;4.60;77.85
7768;BME280;3928;42.626;23.382;2023-01-29T12:08:34;94371.56;;;4.52;78.77
7768;BME280;3928;42.626;23.382;2023-01-29T12:11:10;94351.91;;;4.28;78.46
7768;BME280;3928;42.626;23.382;2023-01-29T12:13:39;94367.25;;;4.43;78.97
7768;BME280;3928;42.626;23.382;2023-01-29T12:16:16;94373.19;;;4.40;79.17
7768;BME280;3928;42.626;23.382;2023-01-29T12:18:49;94375.91;;;4.68;78.42
7768;BME280;3928;42.626;23.382;2023-01-29T12:21:24;94370.91;;;4.85;78.47
7768;BME280;3928;42.626;23.382;2023-01-29T12:23:58;94357.22;;;4.61;78.07
7768;BME280;3928;42.626;23.382;2023-01-29T12:26:30;94375.06;;;4.67;78.69
7768;BME280;3928;42.626;23.382;2023-01-29T12:29:10;94374.19;;;4.62;77.17
7768;BME280;3928;42.626;23.382;2023-01-29T12:31:43;94373.19;;;4.42;77.64
7768;BME280;3928;42.626;23.382;2023-01-29T12:34:18;94380.81;;;4.45;78.98
7768;BME280;3928;42.626;23.382;2023-01-29T12:36:49;94373.09;;;4.33;78.26
7768;BME280;3928;42.626;23.382;2023-01-29T12:39:19;94368.75;;;4.17;79.44
7768;BME280;3928;42.626;23.382;2023-01-29T12:41:51;94384.19;;;4.44;78.40
7768;BME280;3928;42.626;23.382;2023-01-29T12:44:24;94374.97;;;4.54;78.16
7768;BME280;3928;42.626;23.382;2023-01-29T12:46:55;94379.97;;;4.45;77.42
7768;BME280;3928;42.626;23.382;2023-01-29T12:49:28;94380.94;;;4.60;77.51
7768;BME280;3928;42.626;23.382;2023-01-29T12:52:00;94370.03;;;4.74;77.04
7768;BME280;3928;42.626;23.382;2023-01-29T12:54:35;94369.22;;;4.81;76.20
7768;BME280;3928;42.626;23.382;2023-01-29T12:57:08;94377.69;;;4.80;76.52
7768;BME280;3928;42.626;23.382;2023-01-29T12:59:44;94375.00;;;4.61;76.96
7768;BME280;3928;42.626;23.382;2023-01-29T13:02:22;94374.03;;;4.41;77.31
7768;BME280;3928;42.626;23.382;2023-01-29T13:04:56;94379.09;;;4.41;77.49
7768;BME280;3928;42.626;23.382;2023-01-29T13:07:29;94368.66;;;4.09;78.19
7768;BME280;3928;42.626;23.382;2023-01-29T13:10:03;94377.13;;;4.06;78.91
7768;BME280;3928;42.626;23.382;2023-01-29T13:12:33;94365.06;;;3.87;80.20
7768;BME280;3928;42.626;23.382;2023-01-29T13:15:08;94370.28;;;4.02;80.06
7768;BME280;3928;42.626;23.382;2023-01-29T13:17:41;94372.03;;;4.06;79.85
7768;BME280;3928;42.626;23.382;2023-01-29T13:20:14;94317.78;;;3.95;78.98
7768;BME280;3928;42.626;23.382;2023-01-29T13:22:43;94368.88;;;4.32;78.43
7768;BME280;3928;42.626;23.382;2023-01-29T13:25:14;94361.34;;;4.43;78.34
7768;BME280;3928;42.626;23.382;2023-01-29T13:27:42;94341.66;;;4.19;78.77
7768;BME280;3928;42.626;23.382;2023-01-29T13:30:24;94368.84;;;4.29;78.18
7768;BME280;3928;42.626;23.382;2023-01-29T13:32:53;94361.03;;;4.04;78.24
7768;BME280;3928;42.626;23.382;2023-01-29T13:35:34;94384.88;;;4.25;78.12
7768;BME280;3928;42.626;23.382;2023-01-29T13:38:03;94360.28;;;4.15;78.56
7768;BME280;3928;42.626;23.382;2023-01-29T13:40:31;94383.34;;;4.39;78.27
7768;BME280;3928;42.626;23.382;2023-01-29T13:43:00;94389.31;;;4.49;78.51
7768;BME280;3928;42.626;23.382;2023-01-29T13:45:33;94380.91;;;4.54;77.76
7768;BME280;3928;42.626;23.382;2023-01-29T13:48:08;94397.16;;;4.75;79.00